Time;durP1;ratioP1;P1;durP2;ratioP2;P2;SDS_P1;SDS_P2;PMS_P1;PMS_P2;Temp;Humidity;BMP_temperature;BMP_pressure;BME280_temperature;BME280_humidity;BME280_pressure;Samples;Min_cycle;Max_cycle;Signal;HPM_P1;HPM_P2
2022/05/29 00:00:53;;;;;;;8.38;7.07;;;;;;;;;;5036453;28;20054;-85
2022/05/29 00:03:38;;;;;;;8.30;6.40;;;;;;;;;;5028144;28;20049;-84
2022/05/29 00:06:24;;;;;;;13.13;6.75;;;;;;;;;;5020905;28;20049;-82
2022/05/29 00:09:14;;;;;;;9.82;6.85;;;;;;;;;;5027557;28;20053;-85
2022/05/29 00:12:00;;;;;;;9.35;6.90;;;;;;;;;;5020618;28;20480;-85
2022/05/29 00:14:47;;;;;;;10.35;7.20;;;;;;;;;;5036070;28;20045;-87
2022/05/29 00:17:33;;;;;;;9.23;7.50;;;;;;;;;;5013657;28;20046;-83
2022/05/29 00:20:18;;;;;;;10.35;7.80;;;;;;;;;;5035555;28;20049;-84
2022/05/29 00:23:04;;;;;;;10.82;7.35;;;;;;;;;;5014040;28;20078;-87
2022/05/29 00:25:51;;;;;;;10.55;7.82;;;;;;;;;;5035308;28;20401;-83
2022/05/29 00:28:37;;;;;;;11.32;7.95;;;;;;;;;;5007377;28;20481;-83
2022/05/29 00:31:22;;;;;;;11.48;8.32;;;;;;;;;;5035442;28;20053;-82
2022/05/29 00:34:08;;;;;;;13.52;8.23;;;;;;;;;;5035395;28;20400;-82
2022/05/29 00:36:53;;;;;;;9.20;8.05;;;;;;;;;;5026966;28;20069;-85
2022/05/29 00:39:40;;;;;;;11.77;8.20;;;;;;;;;;5013974;28;20227;-83
2022/05/29 00:42:26;;;;;;;13.73;8.73;;;;;;;;;;5035334;28;20041;-84
2022/05/29 00:45:19;;;;;;;10.32;8.23;;;;;;;;;;5027738;28;20049;-84
2022/05/29 00:48:04;;;;;;;13.93;8.73;;;;;;;;;;5030155;28;20392;-84
2022/05/29 00:50:53;;;;;;;15.40;9.73;;;;;;;;;;5031850;28;20049;-82
2022/05/29 00:53:38;;;;;;;16.02;8.90;;;;;;;;;;5022949;28;20051;-82
2022/05/29 00:56:24;;;;;;;13.93;9.73;;;;;;;;;;5039115;28;20041;-88
2022/05/29 00:59:20;;;;;;;12.57;9.60;;;;;;;;;;5036439;28;20049;-86
2022/05/29 01:02:05;;;;;;;12.18;9.25;;;;;;;;;;5026893;28;20053;-84
2022/05/29 01:04:51;;;;;;;13.65;9.80;;;;;;;;;;5036751;28;20045;-87
2022/05/29 01:07:37;;;;;;;9.40;8.40;;;;;;;;;;5035974;28;20400;-84
2022/05/29 01:10:34;;;;;;;10.82;9.35;;;;;;;;;;5029767;28;20045;-84
2022/05/29 01:13:38;;;;;;;9.57;6.47;;;;;;;;;;5038498;28;20049;-83
2022/05/29 01:16:47;;;;;;;6.32;4.50;;;;;;;;;;5015557;28;20045;-85
2022/05/29 01:20:15;;;;;;;5.63;3.75;;;;;;;;;;5029717;28;20049;-87
2022/05/29 01:23:03;;;;;;;4.30;2.95;;;;;;;;;;5018301;28;20057;-84
2022/05/29 01:26:28;;;;;;;6.15;2.30;;;;;;;;;;5013257;28;20045;-82
2022/05/29 01:29:18;;;;;;;3.17;2.13;;;;;;;;;;5019793;28;20041;-85
2022/05/29 01:32:26;;;;;;;5.07;1.92;;;;;;;;;;5026706;28;20045;-82
2022/05/29 01:35:17;;;;;;;3.00;2.10;;;;;;;;;;5019916;28;20049;-83
2022/05/29 01:38:46;;;;;;;7.35;2.80;;;;;;;;;;5013693;28;20049;-83
2022/05/29 01:41:36;;;;;;;5.95;3.00;;;;;;;;;;5010159;28;20050;-85
2022/05/29 01:44:36;;;;;;;5.28;3.08;;;;;;;;;;5021025;28;20037;-85
2022/05/29 01:47:30;;;;;;;8.13;2.83;;;;;;;;;;5013679;28;20045;-87
2022/05/29 01:50:28;;;;;;;5.35;3.00;;;;;;;;;;5012538;28;20049;-84
2022/05/29 01:53:18;;;;;;;3.72;3.08;;;;;;;;;;5020120;28;20418;-85
2022/05/29 01:56:12;;;;;;;4.35;2.60;;;;;;;;;;5020357;28;20037;-84
2022/05/29 01:59:04;;;;;;;5.95;3.25;;;;;;;;;;5027816;28;20049;-87
2022/05/29 02:01:56;;;;;;;7.93;3.78;;;;;;;;;;5012986;28;20041;-85
2022/05/29 02:04:47;;;;;;;6.53;3.40;;;;;;;;;;5019088;28;20049;-85
2022/05/29 02:07:50;;;;;;;7.20;4.00;;;;;;;;;;5034212;28;20041;-88
2022/05/29 02:10:44;;;;;;;6.72;3.55;;;;;;;;;;5034626;28;20041;-84
2022/05/29 02:13:39;;;;;;;6.30;3.80;;;;;;;;;;5032711;28;20045;-84
2022/05/29 02:16:29;;;;;;;6.15;3.55;;;;;;;;;;5032972;28;20045;-82
2022/05/29 02:19:34;;;;;;;3.83;3.42;;;;;;;;;;5025804;28;20038;-88
2022/05/29 02:22:25;;;;;;;8.63;4.40;;;;;;;;;;5041161;28;20045;-84
2022/05/29 02:25:14;;;;;;;6.10;3.63;;;;;;;;;;5026022;28;20037;-86
2022/05/29 02:28:08;;;;;;;7.97;3.30;;;;;;;;;;5040730;28;20053;-84
2022/05/29 02:31:31;;;;;;;9.10;3.33;;;;;;;;;;5025493;28;20041;-84
2022/05/29 02:34:35;;;;;;;5.30;3.20;;;;;;;;;;5018810;28;20041;-86
2022/05/29 02:37:46;;;;;;;3.83;3.33;;;;;;;;;;5018849;28;20049;-85
2022/05/29 02:40:40;;;;;;;5.75;2.97;;;;;;;;;;5024635;28;20045;-84
2022/05/29 02:43:26;;;;;;;;;;;;;;;;;;5041247;28;20057;-88
2022/05/29 02:46:28;;;;;;;8.05;3.83;;;;;;;;;;5025354;28;19917;-83
2022/05/29 02:49:20;;;;;;;6.50;3.25;;;;;;;;;;5040481;28;20046;-84
2022/05/29 02:52:11;;;;;;;5.40;3.22;;;;;;;;;;5040240;28;20489;-86
2022/05/29 02:54:57;;;;;;;6.10;4.00;;;;;;;;;;5018030;28;20477;-84
2022/05/29 02:57:43;;;;;;;6.25;3.65;;;;;;;;;;5041012;28;20376;-87
2022/05/29 03:00:36;;;;;;;4.80;3.20;;;;;;;;;;5025073;28;20503;-88
2022/05/29 03:03:53;;;;;;;6.68;3.70;;;;;;;;;;5047282;28;20045;-86
2022/05/29 03:07:03;;;;;;;4.72;3.60;;;;;;;;;;5023959;28;20037;-85
2022/05/29 03:10:01;;;;;;;7.97;3.90;;;;;;;;;;5032049;28;20049;-86
2022/05/29 03:13:11;;;;;;;5.75;4.20;;;;;;;;;;5040925;28;20060;-84
2022/05/29 03:16:39;;;;;;;6.60;3.70;;;;;;;;;;5025506;28;20045;-86
2022/05/29 03:19:43;;;;;;;11.88;3.95;;;;;;;;;;5019544;28;20057;-84
2022/05/29 03:22:32;;;;;;;11.93;3.85;;;;;;;;;;5030565;28;20477;-85
2022/05/29 03:25:38;;;;;;;8.70;4.72;;;;;;;;;;5044715;28;20053;-83
2022/05/29 03:28:31;;;;;;;9.70;5.97;;;;;;;;;;5032863;28;20480;-84
2022/05/29 03:31:21;;;;;;;4.90;4.28;;;;;;;;;;5024354;28;20045;-83
2022/05/29 03:34:08;;;;;;;22.77;7.35;;;;;;;;;;5040159;28;20392;-80
2022/05/29 03:36:52;;;;;;;15.82;6.82;;;;;;;;;;5028806;28;20476;-83
2022/05/29 03:39:38;;;;;;;22.05;7.50;;;;;;;;;;5041995;28;20049;-82
2022/05/29 03:42:24;;;;;;;17.95;7.60;;;;;;;;;;5042710;28;20041;-82
2022/05/29 03:45:10;;;;;;;13.98;8.13;;;;;;;;;;5047856;28;20473;-85
2022/05/29 03:47:56;;;;;;;8.13;6.90;;;;;;;;;;5042962;28;20041;-83
2022/05/29 03:50:41;;;;;;;11.27;7.50;;;;;;;;;;5041710;28;20053;-85
2022/05/29 03:53:27;;;;;;;10.48;7.28;;;;;;;;;;5042072;28;20477;-82
2022/05/29 03:56:12;;;;;;;8.32;6.18;;;;;;;;;;5028068;28;20061;-85
2022/05/29 03:58:58;;;;;;;6.63;5.82;;;;;;;;;;5024841;28;20049;-84
2022/05/29 04:01:43;;;;;;;10.45;5.35;;;;;;;;;;5036384;28;20049;-87
2022/05/29 04:04:28;;;;;;;10.90;5.90;;;;;;;;;;5035706;28;20046;-84
2022/05/29 04:07:14;;;;;;;11.88;6.38;;;;;;;;;;5036073;28;20042;-83
2022/05/29 04:13:10;;;;;;;9.32;6.82;;;;;;;;;;5009727;28;20037;-83
2022/05/29 04:15:55;;;;;;;15.85;7.30;;;;;;;;;;5035980;28;20046;-84
2022/05/29 04:18:40;;;;;;;7.68;6.32;;;;;;;;;;5035406;28;20045;-80
2022/05/29 04:21:26;;;;;;;9.50;6.97;;;;;;;;;;5035742;28;20053;-85
2022/05/29 04:24:12;;;;;;;10.20;7.00;;;;;;;;;;5042151;28;20049;-82
2022/05/29 04:26:57;;;;;;;8.40;7.47;;;;;;;;;;5035515;28;20045;-82
2022/05/29 04:29:43;;;;;;;10.48;7.72;;;;;;;;;;5027668;28;20045;-81
2022/05/29 04:35:39;;;;;;;15.48;9.77;;;;;;;;;;5035303;28;20045;-82
2022/05/29 04:38:27;;;;;;;13.65;8.52;;;;;;;;;;5042114;28;20476;-83
2022/05/29 04:41:13;;;;;;;10.68;8.30;;;;;;;;;;5035480;28;20041;-82
2022/05/29 04:43:58;;;;;;;12.80;7.50;;;;;;;;;;5020326;28;20045;-82
2022/05/29 04:46:43;;;;;;;11.30;7.90;;;;;;;;;;5034447;28;20049;-82
2022/05/29 04:49:29;;;;;;;12.00;7.40;;;;;;;;;;5042006;28;20053;-82
2022/05/29 04:52:14;;;;;;;15.40;8.65;;;;;;;;;;5041684;28;20042;-80
2022/05/29 04:55:00;;;;;;;9.77;7.43;;;;;;;;;;5035239;28;20484;-81
2022/05/29 04:57:46;;;;;;;11.82;7.70;;;;;;;;;;5035193;28;20038;-81
2022/05/29 05:00:31;;;;;;;11.88;7.63;;;;;;;;;;5019780;28;20484;-81
2022/05/29 05:03:16;;;;;;;11.85;8.75;;;;;;;;;;5034860;28;20041;-81
2022/05/29 05:06:02;;;;;;;14.30;8.95;;;;;;;;;;5034542;28;20481;-82
2022/05/29 05:08:47;;;;;;;12.15;8.95;;;;;;;;;;5034755;28;20049;-82
2022/05/29 05:11:33;;;;;;;10.77;8.13;;;;;;;;;;5031981;28;20049;-81
2022/05/29 05:14:19;;;;;;;15.60;8.85;;;;;;;;;;5034312;28;20034;-83
2022/05/29 05:17:05;;;;;;;11.05;8.65;;;;;;;;;;5034598;28;20053;-81
2022/05/29 05:19:50;;;;;;;11.63;7.50;;;;;;;;;;5034348;28;20045;-82
2022/05/29 05:22:36;;;;;;;11.05;7.90;;;;;;;;;;5032275;28;20049;-82
2022/05/29 05:25:21;;;;;;;9.95;7.10;;;;;;;;;;5017427;28;20041;-81
2022/05/29 05:28:06;;;;;;;12.38;6.97;;;;;;;;;;5030926;28;20045;-83
2022/05/29 05:30:51;;;;;;;10.27;6.35;;;;;;;;;;5025386;28;20041;-84
2022/05/29 05:33:37;;;;;;;10.40;6.50;;;;;;;;;;5040763;28;20045;-82
2022/05/29 05:36:23;;;;;;;10.10;6.75;;;;;;;;;;5041019;28;20054;-82
2022/05/29 05:39:08;;;;;;;10.27;6.72;;;;;;;;;;5032093;28;20045;-83
2022/05/29 05:41:54;;;;;;;8.90;6.05;;;;;;;;;;5033789;28;20053;-84
2022/05/29 05:44:40;;;;;;;8.68;6.18;;;;;;;;;;5033998;28;20038;-82
2022/05/29 05:47:25;;;;;;;8.50;5.93;;;;;;;;;;5033492;28;20050;-82
2022/05/29 05:50:11;;;;;;;10.00;6.47;;;;;;;;;;5034162;28;20400;-83
2022/05/29 05:52:56;;;;;;;10.80;6.35;;;;;;;;;;5033991;28;20037;-83
2022/05/29 05:55:42;;;;;;;11.82;5.60;;;;;;;;;;5025641;28;20061;-83
2022/05/29 05:58:28;;;;;;;10.30;6.40;;;;;;;;;;5023126;28;20050;-83
2022/05/29 06:01:16;;;;;;;9.48;6.07;;;;;;;;;;5014235;28;20050;-80
2022/05/29 06:04:01;;;;;;;8.60;6.05;;;;;;;;;;5017114;28;20424;-81
2022/05/29 06:06:47;;;;;;;11.05;6.07;;;;;;;;;;5024639;28;20038;-84
2022/05/29 06:09:34;;;;;;;7.15;5.30;;;;;;;;;;5029421;28;20472;-82
2022/05/29 06:12:21;;;;;;;9.40;5.35;;;;;;;;;;5042665;28;20033;-81
2022/05/29 06:15:07;;;;;;;7.40;5.57;;;;;;;;;;5034151;28;20045;-80
2022/05/29 06:17:52;;;;;;;12.98;6.80;;;;;;;;;;5032861;28;20030;-82
2022/05/29 06:20:38;;;;;;;11.40;7.93;;;;;;;;;;5033974;28;20400;-82
2022/05/29 06:23:24;;;;;;;7.70;5.55;;;;;;;;;;5033306;28;20050;-85
2022/05/29 06:26:12;;;;;;;11.90;6.03;;;;;;;;;;5006600;28;20045;-81
2022/05/29 06:28:57;;;;;;;9.98;5.07;;;;;;;;;;5025431;28;20041;-83
2022/05/29 06:31:42;;;;;;;9.60;3.63;;;;;;;;;;5032617;28;20042;-83
2022/05/29 06:34:28;;;;;;;9.63;5.40;;;;;;;;;;5033781;28;20045;-81
2022/05/29 06:37:14;;;;;;;6.20;4.93;;;;;;;;;;5032576;28;20400;-82
2022/05/29 06:40:00;;;;;;;7.53;4.03;;;;;;;;;;5034004;28;20045;-81
2022/05/29 06:42:45;;;;;;;9.88;5.00;;;;;;;;;;5033257;28;20041;-83
2022/05/29 06:45:30;;;;;;;6.03;3.17;;;;;;;;;;5023450;28;20049;-84
2022/05/29 06:48:15;;;;;;;6.57;3.55;;;;;;;;;;5035943;28;20041;-82
2022/05/29 06:51:22;;;;;;;4.35;3.10;;;;;;;;;;5022165;28;20042;-81
2022/05/29 06:54:07;;;;;;;4.13;2.80;;;;;;;;;;5014116;28;20058;-85
2022/05/29 06:56:52;;;;;;;4.50;2.22;;;;;;;;;;5020387;28;20484;-82
2022/05/29 07:08:56;;;;;;;5.20;3.38;;;;;;;;;;5022387;28;20480;-85
2022/05/29 07:11:48;;;;;;;5.38;3.70;;;;;;;;;;5026693;28;20045;-82
2022/05/29 07:14:40;;;;;;;10.05;4.47;;;;;;;;;;5033319;28;20049;-83
2022/05/29 07:17:27;;;;;;;4.80;3.80;;;;;;;;;;5036725;28;20388;-86
2022/05/29 07:20:12;;;;;;;5.13;3.88;;;;;;;;;;5036618;28;20045;-86
2022/05/29 07:23:01;;;;;;;7.97;4.10;;;;;;;;;;5039941;28;20042;-86
2022/05/29 07:25:48;;;;;;;6.50;3.15;;;;;;;;;;5033639;28;20053;-87
2022/05/29 07:28:37;;;;;;;8.60;3.70;;;;;;;;;;5038778;28;20049;-85
2022/05/29 07:31:23;;;;;;;6.53;3.88;;;;;;;;;;5038296;28;20404;-86
2022/05/29 07:34:11;;;;;;;4.82;3.55;;;;;;;;;;5029797;28;20053;-87
2022/05/29 07:37:08;;;;;;;6.20;3.90;;;;;;;;;;5029412;28;20041;-85
2022/05/29 07:39:54;;;;;;;4.72;3.80;;;;;;;;;;5029488;28;20049;-85
2022/05/29 07:45:54;;;;;;;7.10;4.30;;;;;;;;;;5030928;28;20473;-87
2022/05/29 07:48:38;;;;;;;5.15;3.80;;;;;;;;;;5035713;28;20041;-86
2022/05/29 07:51:24;;;;;;;5.30;3.80;;;;;;;;;;5042068;28;20049;-86
2022/05/29 07:54:09;;;;;;;5.68;4.07;;;;;;;;;;5042338;28;20476;-88
2022/05/29 07:56:57;;;;;;;5.85;3.90;;;;;;;;;;5028561;28;20448;-87
2022/05/29 07:59:42;;;;;;;9.75;4.20;;;;;;;;;;5042148;28;20049;-86
2022/05/29 08:02:30;;;;;;;6.90;4.07;;;;;;;;;;5040071;28;20041;-86
2022/05/29 08:05:18;;;;;;;5.25;3.47;;;;;;;;;;5011136;28;20399;-87
2022/05/29 08:08:08;;;;;;;5.97;3.70;;;;;;;;;;4998479;28;20045;-87
2022/05/29 08:10:54;;;;;;;5.05;3.75;;;;;;;;;;5026855;28;20053;-85
2022/05/29 08:13:40;;;;;;;7.78;4.00;;;;;;;;;;5036128;28;20045;-86
2022/05/29 08:16:26;;;;;;;5.65;3.95;;;;;;;;;;5039668;28;20053;-85
2022/05/29 08:19:11;;;;;;;4.72;3.83;;;;;;;;;;5032800;28;20065;-85
2022/05/29 08:21:57;;;;;;;8.15;3.90;;;;;;;;;;5028238;28;20053;-85
2022/05/29 08:30:53;;;;;;;5.28;4.00;;;;;;;;;;5017117;28;20041;-86
2022/05/29 08:33:40;;;;;;;6.72;3.97;;;;;;;;;;5031834;28;20045;-85
2022/05/29 08:36:26;;;;;;;6.82;3.45;;;;;;;;;;4994593;28;20489;-84
2022/05/29 08:39:12;;;;;;;5.38;3.42;;;;;;;;;;5016178;28;20057;-86
2022/05/29 08:41:59;;;;;;;5.13;3.20;;;;;;;;;;5002357;28;20050;-84
2022/05/29 08:44:49;;;;;;;4.80;3.60;;;;;;;;;;5030207;28;20045;-85
2022/05/29 08:47:36;;;;;;;7.07;3.80;;;;;;;;;;5034931;28;20053;-85
2022/05/29 08:50:44;;;;;;;5.80;3.65;;;;;;;;;;5021165;28;20046;-84
2022/05/29 08:53:41;;;;;;;8.38;3.80;;;;;;;;;;5001590;28;20038;-86
2022/05/29 08:56:35;;;;;;;5.13;2.95;;;;;;;;;;5013062;28;20045;-86
2022/05/29 08:59:42;;;;;;;5.57;3.50;;;;;;;;;;5013740;28;20046;-85
2022/05/29 09:02:48;;;;;;;4.80;3.35;;;;;;;;;;5030479;28;20045;-83
2022/05/29 09:05:53;;;;;;;6.13;3.97;;;;;;;;;;5000967;28;20046;-82
2022/05/29 09:08:48;;;;;;;6.32;3.22;;;;;;;;;;4987207;28;20482;-85
2022/05/29 09:11:39;;;;;;;14.90;10.02;;;;;;;;;;5001480;28;20035;-84
2022/05/29 09:14:43;;;;;;;5.85;3.10;;;;;;;;;;4982487;28;20038;-85
2022/05/29 09:17:53;;;;;;;6.45;3.10;;;;;;;;;;4995680;28;20046;-86
2022/05/29 09:20:43;;;;;;;15.57;3.58;;;;;;;;;;5026447;28;20046;-85
2022/05/29 09:23:33;;;;;;;7.00;3.60;;;;;;;;;;5014972;28;20057;-84
2022/05/29 09:26:19;;;;;;;4.75;3.50;;;;;;;;;;5014677;28;20045;-84
2022/05/29 09:29:06;;;;;;;5.70;3.45;;;;;;;;;;5014534;28;20397;-87
2022/05/29 09:31:52;;;;;;;5.15;3.60;;;;;;;;;;4999245;28;20045;-86
2022/05/29 09:34:37;;;;;;;9.77;3.50;;;;;;;;;;5014542;28;20050;-83
2022/05/29 09:37:27;;;;;;;5.55;3.45;;;;;;;;;;4999611;28;20045;-87
2022/05/29 09:40:21;;;;;;;5.57;3.20;;;;;;;;;;5030091;28;20046;-86
2022/05/29 09:43:14;;;;;;;8.57;4.40;;;;;;;;;;5009322;28;20049;-83
2022/05/29 09:46:21;;;;;;;8.43;4.68;;;;;;;;;;4992792;28;20058;-87
2022/05/29 09:52:26;;;;;;;6.82;3.60;;;;;;;;;;5017988;28;20045;-86
2022/05/29 09:55:32;;;;;;;6.20;3.60;;;;;;;;;;5038295;28;20045;-86
2022/05/29 09:58:24;;;;;;;4.88;3.40;;;;;;;;;;5034442;28;20400;-84
2022/05/29 10:01:09;;;;;;;8.77;3.50;;;;;;;;;;5040378;28;20057;-85
2022/05/29 10:03:57;;;;;;;5.65;3.10;;;;;;;;;;5034318;28;20057;-84
2022/05/29 10:06:47;;;;;;;7.95;3.50;;;;;;;;;;5025906;28;20492;-84
2022/05/29 10:09:52;;;;;;;6.82;4.00;;;;;;;;;;5025082;28;20045;-85
2022/05/29 10:12:46;;;;;;;6.82;4.13;;;;;;;;;;5033436;28;20404;-84
2022/05/29 10:15:34;;;;;;;;;;;;;;;;;;5032825;28;20050;-85
2022/05/29 10:18:28;;;;;;;6.47;3.88;;;;;;;;;;5010130;28;19917;-84
2022/05/29 10:21:21;;;;;;;9.63;4.57;;;;;;;;;;5032761;28;20041;-86
2022/05/29 10:24:37;;;;;;;7.38;3.78;;;;;;;;;;5035848;28;20045;-86
2022/05/29 10:27:34;;;;;;;6.03;3.80;;;;;;;;;;5030011;28;20042;-87
2022/05/29 10:30:30;;;;;;;8.15;3.58;;;;;;;;;;5032911;28;20053;-86
2022/05/29 10:33:22;;;;;;;13.52;6.90;;;;;;;;;;5035792;28;20037;-86
2022/05/29 10:36:16;;;;;;;37.50;21.23;;;;;;;;;;5036630;28;20405;-85
2022/05/29 10:39:26;;;;;;;7.22;4.00;;;;;;;;;;5043095;28;20041;-87
2022/05/29 10:42:11;;;;;;;6.82;3.97;;;;;;;;;;5042980;28;20053;-85
2022/05/29 10:44:58;;;;;;;7.53;4.10;;;;;;;;;;5043550;28;20488;-85
2022/05/29 10:47:57;;;;;;;10.80;4.45;;;;;;;;;;5038937;28;20046;-82
2022/05/29 10:51:01;;;;;;;14.70;4.38;;;;;;;;;;5027370;28;20501;-83
2022/05/29 10:54:04;;;;;;;6.13;3.90;;;;;;;;;;5037958;28;20053;-85
2022/05/29 10:57:08;;;;;;;8.48;4.15;;;;;;;;;;5036980;28;20372;-85
2022/05/29 11:00:09;;;;;;;5.75;4.22;;;;;;;;;;5024251;28;20055;-85
2022/05/29 11:03:33;;;;;;;7.35;4.13;;;;;;;;;;5024201;28;20057;-85
2022/05/29 11:06:33;;;;;;;16.48;3.97;;;;;;;;;;5012215;28;20050;-85
2022/05/29 11:09:40;;;;;;;7.28;4.35;;;;;;;;;;5021359;28;20049;-84
2022/05/29 11:12:50;;;;;;;7.63;3.78;;;;;;;;;;5031291;28;20050;-86
2022/05/29 11:16:01;;;;;;;5.50;3.92;;;;;;;;;;5001870;28;20041;-85
2022/05/29 11:18:46;;;;;;;7.13;3.88;;;;;;;;;;5031195;28;20038;-82
2022/05/29 11:21:38;;;;;;;10.40;3.88;;;;;;;;;;5040489;28;20480;-86
2022/05/29 11:24:26;;;;;;;6.70;3.95;;;;;;;;;;5025299;28;20049;-81
2022/05/29 11:28:09;;;;;;;8.75;3.85;;;;;;;;;;5038667;28;20042;-83
2022/05/29 11:31:34;;;;;;;4.25;3.38;;;;;;;;;;4962423;28;20055;-83
2022/05/29 11:34:44;;;;;;;8.13;3.67;;;;;;;;;;4964717;28;20039;-84
2022/05/29 11:38:06;;;;;;;6.00;3.83;;;;;;;;;;5036100;28;20033;-82
2022/05/29 11:40:59;;;;;;;5.50;3.45;;;;;;;;;;5036528;28;20053;-82
2022/05/29 11:44:12;;;;;;;6.47;3.78;;;;;;;;;;5034925;28;20049;-86
2022/05/29 11:54:05;;;;;;;6.75;3.40;;;;;;;;;;5036221;28;20112;-85
2022/05/29 11:57:06;;;;;;;7.50;4.00;;;;;;;;;;4988938;28;20053;-84
2022/05/29 11:59:58;;;;;;;7.32;4.30;;;;;;;;;;5025114;28;20053;-84
2022/05/29 12:03:00;;;;;;;10.63;5.82;;;;;;;;;;5032414;28;20033;-85
2022/05/29 12:06:05;;;;;;;7.35;4.88;;;;;;;;;;5027647;28;20050;-85
2022/05/29 12:09:05;;;;;;;15.52;4.10;;;;;;;;;;5028282;28;20049;-88
2022/05/29 12:12:07;;;;;;;9.02;5.35;;;;;;;;;;5014329;28;20057;-86
2022/05/29 12:15:00;;;;;;;7.03;4.00;;;;;;;;;;5027597;28;20053;-85
2022/05/29 12:18:00;;;;;;;11.02;5.18;;;;;;;;;;5011344;28;20392;-85
2022/05/29 12:20:58;;;;;;;7.88;4.43;;;;;;;;;;5014268;28;20046;-86
2022/05/29 12:23:48;;;;;;;6.95;4.03;;;;;;;;;;5016454;28;20053;-87
2022/05/29 12:26:48;;;;;;;6.30;3.47;;;;;;;;;;5007465;28;20046;-86
2022/05/29 12:29:56;;;;;;;7.75;3.50;;;;;;;;;;5013895;28;20042;-87
2022/05/29 12:32:41;;;;;;;7.70;3.50;;;;;;;;;;5009908;28;20049;-84
2022/05/29 12:35:35;;;;;;;6.97;3.72;;;;;;;;;;5025548;28;20082;-85
2022/05/29 12:38:36;;;;;;;6.97;3.35;;;;;;;;;;5036127;28;20038;-86
2022/05/29 12:42:01;;;;;;;9.13;3.90;;;;;;;;;;5036459;28;20393;-85
2022/05/29 12:44:56;;;;;;;8.43;3.90;;;;;;;;;;5037663;28;20057;-84
2022/05/29 12:48:17;;;;;;;9.40;3.75;;;;;;;;;;5038592;28;20041;-84
2022/05/29 12:51:16;;;;;;;5.93;4.32;;;;;;;;;;5030572;28;20041;-85
2022/05/29 12:54:42;;;;;;;7.38;4.47;;;;;;;;;;5034035;28;20484;-86
2022/05/29 12:57:55;;;;;;;13.63;8.43;;;;;;;;;;5022187;28;20053;-83
2022/05/29 13:01:12;;;;;;;8.20;5.82;;;;;;;;;;5031719;28;20038;-81
2022/05/29 13:04:19;;;;;;;9.40;4.30;;;;;;;;;;5034564;28;20049;-82
2022/05/29 13:07:08;;;;;;;5.90;4.13;;;;;;;;;;5016646;28;20460;-82
2022/05/29 13:10:18;;;;;;;12.43;4.47;;;;;;;;;;5034268;28;20042;-83
2022/05/29 13:13:06;;;;;;;6.82;4.60;;;;;;;;;;5034442;28;20504;-83
2022/05/29 13:15:52;;;;;;;5.97;4.38;;;;;;;;;;5041368;28;20476;-83
2022/05/29 13:19:04;;;;;;;8.73;5.50;;;;;;;;;;5040416;28;20045;-83
2022/05/29 13:22:04;;;;;;;8.52;4.63;;;;;;;;;;5034898;28;20057;-80
2022/05/29 13:25:04;;;;;;;7.07;4.75;;;;;;;;;;5040044;28;20045;-81
2022/05/29 13:27:51;;;;;;;6.63;4.85;;;;;;;;;;5034296;28;20046;-83
2022/05/29 13:30:36;;;;;;;7.57;4.80;;;;;;;;;;5034355;28;20472;-82
2022/05/29 13:33:28;;;;;;;6.40;4.40;;;;;;;;;;5033757;28;20393;-84
2022/05/29 13:36:43;;;;;;;9.38;4.05;;;;;;;;;;5034580;28;20053;-84
2022/05/29 13:39:37;;;;;;;;;;;;;;;;;;5024350;28;20049;-85
2022/05/29 13:42:26;;;;;;;17.50;10.73;;;;;;;;;;5026165;28;19921;-84
2022/05/29 13:45:23;;;;;;;13.10;8.48;;;;;;;;;;5025874;28;20053;-84
2022/05/29 13:48:24;;;;;;;21.55;12.65;;;;;;;;;;5035324;28;20045;-88
2022/05/29 13:51:35;;;;;;;17.42;11.27;;;;;;;;;;5042698;28;20041;-83
2022/05/29 13:54:27;;;;;;;12.27;6.18;;;;;;;;;;5030593;28;20492;-84
2022/05/29 14:04:04;;;;;;;8.02;5.57;;;;;;;;;;5037450;28;20053;-83
2022/05/29 14:07:07;;;;;;;11.73;4.45;;;;;;;;;;5018782;28;20045;-85
2022/05/29 14:10:21;;;;;;;27.38;17.98;;;;;;;;;;5018605;28;20049;-86
2022/05/29 14:13:11;;;;;;;14.75;9.23;;;;;;;;;;5010738;28;20049;-84
2022/05/29 14:16:08;;;;;;;9.00;4.78;;;;;;;;;;5005496;28;20050;-84
2022/05/29 14:19:25;;;;;;;6.90;4.13;;;;;;;;;;5030609;28;20053;-83
2022/05/29 14:22:37;;;;;;;7.95;4.22;;;;;;;;;;5019062;28;20053;-83
2022/05/29 14:25:47;;;;;;;8.40;4.15;;;;;;;;;;5035483;28;20042;-85
2022/05/29 14:29:01;;;;;;;12.80;4.90;;;;;;;;;;5026112;28;20041;-86
2022/05/29 14:32:10;;;;;;;8.40;4.50;;;;;;;;;;5035679;28;20396;-83
2022/05/29 14:35:17;;;;;;;6.47;4.20;;;;;;;;;;5018654;28;20041;-86
2022/05/29 14:38:38;;;;;;;8.05;4.57;;;;;;;;;;5030053;28;20053;-83
2022/05/29 14:41:36;;;;;;;9.38;4.20;;;;;;;;;;4987791;28;20053;-85
2022/05/29 14:44:42;;;;;;;9.25;4.47;;;;;;;;;;5023599;28;20477;-85
2022/05/29 14:48:01;;;;;;;10.20;4.75;;;;;;;;;;5009238;28;20046;-85
2022/05/29 14:51:00;;;;;;;8.07;4.72;;;;;;;;;;5005668;28;20050;-85
2022/05/29 14:53:54;;;;;;;7.47;4.40;;;;;;;;;;5000138;28;20047;-85
2022/05/29 14:56:51;;;;;;;10.45;4.72;;;;;;;;;;4994885;28;20042;-84
2022/05/29 14:59:37;;;;;;;7.47;4.95;;;;;;;;;;4994027;28;20042;-85
2022/05/29 15:02:29;;;;;;;12.63;4.75;;;;;;;;;;4999698;28;20054;-85
2022/05/29 15:05:17;;;;;;;5.95;4.20;;;;;;;;;;4998793;28;20046;-80
2022/05/29 15:11:14;;;;;;;6.85;4.57;;;;;;;;;;4993265;28;20039;-82
2022/05/29 15:14:01;;;;;;;8.65;4.25;;;;;;;;;;4992242;28;20046;-80
2022/05/29 15:16:55;;;;;;;10.05;4.35;;;;;;;;;;4991863;28;20421;-84
2022/05/29 15:26:06;;;;;;;7.82;4.45;;;;;;;;;;4996757;28;20050;-83
2022/05/29 15:28:55;;;;;;;5.80;4.25;;;;;;;;;;5002859;28;20054;-84
2022/05/29 15:31:46;;;;;;;14.88;4.43;;;;;;;;;;5002602;28;20050;-84
2022/05/29 15:34:59;;;;;;;11.63;4.22;;;;;;;;;;5002523;28;20050;-82
2022/05/29 15:38:12;;;;;;;9.90;4.70;;;;;;;;;;4996423;28;20046;-84
2022/05/29 15:41:00;;;;;;;8.27;4.55;;;;;;;;;;4995671;28;20054;-82
2022/05/29 15:43:58;;;;;;;7.82;4.35;;;;;;;;;;4996348;28;20054;-83
2022/05/29 15:47:23;;;;;;;9.75;4.65;;;;;;;;;;4997758;28;20050;-83
2022/05/29 15:50:38;;;;;;;9.18;4.45;;;;;;;;;;5002672;28;20050;-85
2022/05/29 15:53:57;;;;;;;8.82;4.47;;;;;;;;;;5001871;28;20050;-82
2022/05/29 15:56:55;;;;;;;9.00;4.18;;;;;;;;;;4996584;28;20050;-84
2022/05/29 15:59:46;;;;;;;8.73;4.90;;;;;;;;;;5003536;28;20046;-84
2022/05/29 16:02:47;;;;;;;7.85;4.65;;;;;;;;;;5002157;28;20408;-82
2022/05/29 16:05:39;;;;;;;10.07;4.63;;;;;;;;;;4996695;28;20058;-81
2022/05/29 16:08:28;;;;;;;6.20;4.60;;;;;;;;;;4996361;28;20062;-82
2022/05/29 16:11:52;;;;;;;10.02;4.32;;;;;;;;;;4996379;28;20054;-81
2022/05/29 16:14:42;;;;;;;10.10;4.80;;;;;;;;;;4996037;28;20054;-82
2022/05/29 16:17:36;;;;;;;8.90;4.55;;;;;;;;;;4996679;28;20046;-81
2022/05/29 16:20:33;;;;;;;;;;;;;;;;;;4996669;28;20060;-81
2022/05/29 16:23:53;;;;;;;11.70;4.97;;;;;;;;;;5001602;28;19918;-84
2022/05/29 16:26:39;;;;;;;9.88;4.72;;;;;;;;;;5001825;28;20050;-82
2022/05/29 16:29:33;;;;;;;9.35;5.03;;;;;;;;;;4996506;28;20058;-83
2022/05/29 16:32:26;;;;;;;16.00;5.05;;;;;;;;;;4996289;28;20039;-84
2022/05/29 16:35:25;;;;;;;13.48;5.63;;;;;;;;;;5004041;28;20058;-83
2022/05/29 16:48:37;;;;;;;12.50;6.15;;;;;;;;;;4999659;28;20394;-84
2022/05/29 16:51:28;;;;;;;11.50;5.60;;;;;;;;;;4998529;28;20046;-82
2022/05/29 16:54:37;;;;;;;10.55;5.63;;;;;;;;;;5006070;28;20034;-83
2022/05/29 16:57:51;;;;;;;13.18;5.93;;;;;;;;;;4997749;28;20042;-84
2022/05/29 17:01:14;;;;;;;8.70;5.63;;;;;;;;;;4990312;28;20050;-85
2022/05/29 17:04:26;;;;;;;9.80;5.50;;;;;;;;;;4964414;28;20062;-85
2022/05/29 17:07:21;;;;;;;12.95;6.13;;;;;;;;;;5001965;28;20043;-84
2022/05/29 17:10:20;;;;;;;10.80;5.80;;;;;;;;;;4987553;28;20051;-85
2022/05/29 17:13:06;;;;;;;11.57;5.47;;;;;;;;;;4995186;28;20034;-85
2022/05/29 17:15:54;;;;;;;9.10;5.55;;;;;;;;;;5005581;28;20493;-84
2022/05/29 17:18:39;;;;;;;11.50;5.93;;;;;;;;;;5006369;28;20050;-85
2022/05/29 17:21:29;;;;;;;9.65;5.85;;;;;;;;;;5005246;28;20046;-84
2022/05/29 17:24:59;;;;;;;8.70;5.47;;;;;;;;;;5022662;28;20053;-83
2022/05/29 17:27:50;;;;;;;9.73;5.97;;;;;;;;;;4950427;28;20050;-83
2022/05/29 17:31:02;;;;;;;11.20;5.80;;;;;;;;;;5006954;28;20045;-86
2022/05/29 17:33:51;;;;;;;8.27;5.78;;;;;;;;;;5012027;28;20488;-84
2022/05/29 17:36:44;;;;;;;13.30;5.47;;;;;;;;;;5001478;28;20045;-84
2022/05/29 17:39:53;;;;;;;8.95;5.28;;;;;;;;;;5004488;28;20038;-85
2022/05/29 17:42:38;;;;;;;10.13;5.70;;;;;;;;;;5002090;28;20400;-83
2022/05/29 17:45:23;;;;;;;9.82;5.82;;;;;;;;;;4997715;28;20190;-87
2022/05/29 17:48:38;;;;;;;12.75;7.03;;;;;;;;;;4973563;28;20050;-85
2022/05/29 17:51:44;;;;;;;10.73;6.70;;;;;;;;;;4986840;28;20050;-84
2022/05/29 17:54:41;;;;;;;12.30;7.57;;;;;;;;;;4999962;28;20037;-86
2022/05/29 17:58:09;;;;;;;13.10;8.30;;;;;;;;;;5025532;28;20049;-83
2022/05/29 18:01:01;;;;;;;14.15;7.88;;;;;;;;;;5012273;28;20496;-83
2022/05/29 18:03:52;;;;;;;18.20;8.18;;;;;;;;;;5026001;28;20041;-83
2022/05/29 18:06:37;;;;;;;10.32;7.72;;;;;;;;;;5011770;28;20049;-85
2022/05/29 18:09:23;;;;;;;12.20;8.07;;;;;;;;;;5011924;28;20045;-85
2022/05/29 18:12:31;;;;;;;11.90;7.88;;;;;;;;;;5011854;28;20049;-85
2022/05/29 18:16:07;;;;;;;34.90;25.45;;;;;;;;;;4997758;28;20093;-87
2022/05/29 18:19:01;;;;;;;43.45;32.30;;;;;;;;;;4989990;28;20046;-85
2022/05/29 18:21:54;;;;;;;39.70;32.08;;;;;;;;;;5017378;28;20046;-86
2022/05/29 18:24:39;;;;;;;32.97;27.25;;;;;;;;;;5015796;28;20042;-85